Skip Navigation Links Skip Navigation Links

Current Weather

Albertus, Freeport, Ill.

For information only: do not use for flight planning or navigation.
Latest weather
Observation time Friday, February 28, 2020 5:15 AM CST
Local time Friday, February 28, 2020 5:33 AM CST
Flight conditions Visual Meteorological Conditions
Winds
Wind direction North-Northwest (340°)
Wind speed 5 mph
Visibility 10 mi.
Sky condition
Ceiling 6,000 ft. overcast
Cloud layer scattered clouds 5,000 ft.
Cloud layer overcast 6,000 ft.
Temperature 19°F
Dewpoint 11°F
Altimeter 30.06 in.Hg
Derived measurements
Relative humidity 72%
Wind chill 12°F
Density altitude -2030 ft.
Remarks
Fully automated report.
Automated weather observing station with precipitation discriminator.
METAR KFEP 281115Z AUTO 34004KT 10SM SCT050 OVC060 M07/M11 A3006 RMK AO2 T10731115

Settings

Location code

InnerDrive.Weather 4.0.6770.0 Release CLR 4.0.30319.42000
Copyright ©2018 Inner Drive Technology. All rights reserved. Portions Copyright ©1986-2018 David Braverman.

Find weather

Site navigation


Skip Navigation Links

Place info

Page info

PayPal - The safer, easier way to pay online!

Return home.

Copyright ©2020 Inner Drive Technology. Purveyors of fine, hand-crafted computer software. Page printed 2020-02-28T11:33:43 UTC.